F/V Oceanie — FVBW — position and weather

sailwx.info

Track history (hours):
 
Tides and Currents Weather Stations Pressure Air Temp Water Temp Dewpoint Dewpoint Depression Visibility Wind Speed Wind Dir Waves Ship Positions

F/V Oceanie

Last reported at 2014-Nov-24 19:29 UTC. Time now 2014-Nov-24 20:23 UTC.
Position N 47°27' W 003°18'.

Length 16 m.

Type: Fishing. MMSI: 228370000.

Date/timePositionNaut miles runAvg speedWind from/ knotsBaromVisibWave heightAir tempDewpointWater temp
2014-Nov-24 19:29N 47°27' W 003°18'1 1.0
2014-Nov-24 18:21N 47°26' W 003°20'1 1.8
2014-Nov-24 17:33N 47°28' W 003°21'6 6.2
2014-Nov-24 16:34N 47°34' W 003°22'9 8.8
2014-Nov-24 15:33N 47°42' W 003°22'1 1.3
2014-Nov-24 14:33N 47°44' W 003°22'  
2014-Nov-22 03:33N 47°44' W 003°22'0 0.0
2014-Nov-22 02:33N 47°44' W 003°22'4 4.3
2014-Nov-22 01:33N 47°39' W 003°22'4 0.2
2014-Nov-21 03:07N 47°36' W 003°24'5 8.8
2014-Nov-21 02:33N 47°40' W 003°22'2 2.3
2014-Nov-21 01:33N 47°43' W 003°22'7 0.3
2014-Nov-20 03:33N 47°36' W 003°23'8 8.2
2014-Nov-20 02:33N 47°44' W 003°22'1 0.8
2014-Nov-20 01:33N 47°43' W 003°22'3 0.2
2014-Nov-19 03:33N 47°40' W 003°22'4 4.1
2014-Nov-19 02:33N 47°44' W 003°22'0 0.1
2014-Nov-19 01:33N 47°44' W 003°22'2 2.2
2014-Nov-19 00:33N 47°42' W 003°22'13 0.8
2014-Nov-18 08:28N 47°29' W 003°27'5 0.8
2014-Nov-18 01:28N 47°25' W 003°21'2 1.9
2014-Nov-18 00:33N 47°27' W 003°20'1 0.9
2014-Nov-17 23:33N 47°26' W 003°20'1 0.5
2014-Nov-17 22:33N 47°26' W 003°21'0 0.3
2014-Nov-17 21:33N 47°26' W 003°21'1 1.4
2014-Nov-17 20:32N 47°27' W 003°21'1 0.7
2014-Nov-17 19:22N 47°27' W 003°22'1 0.7
2014-Nov-17 18:33N 47°26' W 003°21'3 3.1
2014-Nov-17 17:32N 47°28' W 003°25'2 1.9
2014-Nov-17 16:33N 47°30' W 003°27'1 0.4
2014-Nov-17 15:06N 47°29' W 003°26'1 1.5
2014-Nov-17 14:20N 47°28' W 003°25'2 2.4
2014-Nov-17 13:30N 47°30' W 003°27'2 2.0
2014-Nov-17 12:31N 47°28' W 003°25'1 1.1
2014-Nov-17 11:33N 47°28' W 003°26'1 0.7
2014-Nov-17 10:23N 47°27' W 003°27'2 2.9
2014-Nov-17 09:33N 47°30' W 003°26'2 1.8
2014-Nov-17 08:30N 47°28' W 003°26'1 1.5
2014-Nov-17 07:33N 47°29' W 003°25'1 1.3
2014-Nov-17 06:31N 47°30' W 003°26'2 1.5
2014-Nov-17 05:24N 47°29' W 003°27'4 5.1
2014-Nov-17 04:33N 47°33' W 003°26'9 8.8
2014-Nov-17 03:33N 47°41' W 003°22'2 0.1
2014-Nov-15 02:33N 47°44' W 003°22'4 3.6
2014-Nov-15 01:33N 47°40' W 003°22'9 9.0
2014-Nov-15 00:33N 47°31' W 003°21'5 5.3
2014-Nov-14 23:33N 47°26' W 003°21'0 0.2
2014-Nov-14 22:29N 47°26' W 003°20'1 1.3
2014-Nov-14 21:32N 47°27' W 003°20'1 0.6
2014-Nov-14 20:33N 47°27' W 003°20'1 0.9
2014-Nov-14 19:30N 47°26' W 003°22'  
Track history (hours):
 
Tides and Currents Weather Stations Pressure Air Temp Water Temp Dewpoint Dewpoint Depression Visibility Wind Speed Wind Dir Waves Ship Positions

F/V Oceanie

Last reported at 2014-Nov-24 19:29 UTC. Time now 2014-Nov-24 20:23 UTC.
Position N 47°27' W 003°18'.

Length 16 m.

Type: Fishing. MMSI: 228370000.

Date/timePositionNaut miles runAvg speedWind from/ knotsBaromVisibWave heightAir tempDewpointWater temp
2014-Nov-24 19:29N 47°27' W 003°18'1 1.0
2014-Nov-24 18:21N 47°26' W 003°20'1 1.8
2014-Nov-24 17:33N 47°28' W 003°21'6 6.2
2014-Nov-24 16:34N 47°34' W 003°22'9 8.8
2014-Nov-24 15:33N 47°42' W 003°22'1 1.3
2014-Nov-24 14:33N 47°44' W 003°22'  
2014-Nov-22 03:33N 47°44' W 003°22'0 0.0
2014-Nov-22 02:33N 47°44' W 003°22'4 4.3
2014-Nov-22 01:33N 47°39' W 003°22'4 0.2
2014-Nov-21 03:07N 47°36' W 003°24'5 8.8
2014-Nov-21 02:33N 47°40' W 003°22'2 2.3
2014-Nov-21 01:33N 47°43' W 003°22'7 0.3
2014-Nov-20 03:33N 47°36' W 003°23'8 8.2
2014-Nov-20 02:33N 47°44' W 003°22'1 0.8
2014-Nov-20 01:33N 47°43' W 003°22'3 0.2
2014-Nov-19 03:33N 47°40' W 003°22'4 4.1
2014-Nov-19 02:33N 47°44' W 003°22'0 0.1
2014-Nov-19 01:33N 47°44' W 003°22'2 2.2
2014-Nov-19 00:33N 47°42' W 003°22'13 0.8
2014-Nov-18 08:28N 47°29' W 003°27'5 0.8
2014-Nov-18 01:28N 47°25' W 003°21'2 1.9
2014-Nov-18 00:33N 47°27' W 003°20'1 0.9
2014-Nov-17 23:33N 47°26' W 003°20'1 0.5
2014-Nov-17 22:33N 47°26' W 003°21'0 0.3
2014-Nov-17 21:33N 47°26' W 003°21'1 1.4
2014-Nov-17 20:32N 47°27' W 003°21'1 0.7
2014-Nov-17 19:22N 47°27' W 003°22'1 0.7
2014-Nov-17 18:33N 47°26' W 003°21'3 3.1
2014-Nov-17 17:32N 47°28' W 003°25'2 1.9
2014-Nov-17 16:33N 47°30' W 003°27'1 0.4
2014-Nov-17 15:06N 47°29' W 003°26'1 1.5
2014-Nov-17 14:20N 47°28' W 003°25'2 2.4
2014-Nov-17 13:30N 47°30' W 003°27'2 2.0
2014-Nov-17 12:31N 47°28' W 003°25'1 1.1
2014-Nov-17 11:33N 47°28' W 003°26'1 0.7
2014-Nov-17 10:23N 47°27' W 003°27'2 2.9
2014-Nov-17 09:33N 47°30' W 003°26'2 1.8
2014-Nov-17 08:30N 47°28' W 003°26'1 1.5
2014-Nov-17 07:33N 47°29' W 003°25'1 1.3
2014-Nov-17 06:31N 47°30' W 003°26'2 1.5
2014-Nov-17 05:24N 47°29' W 003°27'4 5.1
2014-Nov-17 04:33N 47°33' W 003°26'9 8.8
2014-Nov-17 03:33N 47°41' W 003°22'2 0.1
2014-Nov-15 02:33N 47°44' W 003°22'4 3.6
2014-Nov-15 01:33N 47°40' W 003°22'9 9.0
2014-Nov-15 00:33N 47°31' W 003°21'5 5.3
2014-Nov-14 23:33N 47°26' W 003°21'0 0.2
2014-Nov-14 22:29N 47°26' W 003°20'1 1.3
2014-Nov-14 21:32N 47°27' W 003°20'1 0.6
2014-Nov-14 20:33N 47°27' W 003°20'1 0.9
2014-Nov-14 19:30N 47°26' W 003°22'  

Dump ship's entire track history